ESFJ weather

CLOSED Sjöbo Air Base
Sjöbo, Skåne län, Sweden

Public forecast

Using degrees Celsius for public forecast. Weather courtesy of forecast.io.

Closest aviation weather report (METAR) to Sjöbo Air Base

Closest report is Malmö Sturup Airport, 10.8 nm (20.1 km) SW. Retrieved 2020/08/06 04:50 UTC (2 hours ago):

ESMS 060450Z 13003KT CAVOK 15/15 Q1021

Closest aviation forecast (TAF) to Sjöbo Air Base

Closest forecast is Malmö Sturup Airport, 10.8 nm (20.1 km) SW. Retrieved 2020/08/06 06:00 UTC (48 minutes ago):

TAF ESMS 060509Z 0606/0706 14006KT CAVOK